sensor_id;sensor_type;location;lat;lon;timestamp;P1;durP1;ratioP1;P2;durP2;ratioP2
63408;SDS011;49544;50.872;4.348;2022-08-01T00:02:09;5.25;;;1.83;;
63408;SDS011;49544;50.872;4.348;2022-08-01T00:04:45;4.50;;;1.75;;
63408;SDS011;49544;50.872;4.348;2022-08-01T00:07:11;2.05;;;1.63;;
63408;SDS011;49544;50.872;4.348;2022-08-01T00:09:45;4.32;;;2.08;;
63408;SDS011;49544;50.872;4.348;2022-08-01T00:12:19;9.68;;;2.05;;
63408;SDS011;49544;50.872;4.348;2022-08-01T00:14:45;5.13;;;2.00;;
63408;SDS011;49544;50.872;4.348;2022-08-01T00:17:14;4.43;;;2.00;;
63408;SDS011;49544;50.872;4.348;2022-08-01T00:19:47;5.07;;;2.08;;
63408;SDS011;49544;50.872;4.348;2022-08-01T00:22:16;4.78;;;2.45;;
63408;SDS011;49544;50.872;4.348;2022-08-01T00:24:50;5.68;;;1.95;;
63408;SDS011;49544;50.872;4.348;2022-08-01T00:27:24;5.03;;;2.40;;
63408;SDS011;49544;50.872;4.348;2022-08-01T00:29:52;4.07;;;2.45;;
63408;SDS011;49544;50.872;4.348;2022-08-01T00:32:23;5.75;;;2.53;;
63408;SDS011;49544;50.872;4.348;2022-08-01T00:34:52;6.60;;;2.88;;
63408;SDS011;49544;50.872;4.348;2022-08-01T00:37:29;8.43;;;2.50;;
63408;SDS011;49544;50.872;4.348;2022-08-01T00:40:02;9.73;;;2.90;;
63408;SDS011;49544;50.872;4.348;2022-08-01T00:42:31;4.53;;;2.65;;
63408;SDS011;49544;50.872;4.348;2022-08-01T00:45:02;6.13;;;2.90;;
63408;SDS011;49544;50.872;4.348;2022-08-01T00:47:34;6.97;;;2.85;;
63408;SDS011;49544;50.872;4.348;2022-08-01T00:50:08;5.03;;;2.90;;
63408;SDS011;49544;50.872;4.348;2022-08-01T00:52:39;5.72;;;2.30;;
63408;SDS011;49544;50.872;4.348;2022-08-01T00:55:14;3.83;;;2.80;;
63408;SDS011;49544;50.872;4.348;2022-08-01T00:57:43;5.22;;;2.63;;
63408;SDS011;49544;50.872;4.348;2022-08-01T01:00:16;4.30;;;2.60;;
63408;SDS011;49544;50.872;4.348;2022-08-01T01:02:51;2.72;;;2.03;;
63408;SDS011;49544;50.872;4.348;2022-08-01T01:05:22;6.32;;;3.20;;
63408;SDS011;49544;50.872;4.348;2022-08-01T01:10:57;5.78;;;2.17;;
63408;SDS011;49544;50.872;4.348;2022-08-01T01:14:01;4.43;;;2.35;;
63408;SDS011;49544;50.872;4.348;2022-08-01T01:16:43;5.70;;;2.80;;
63408;SDS011;49544;50.872;4.348;2022-08-01T01:19:16;5.35;;;3.20;;
63408;SDS011;49544;50.872;4.348;2022-08-01T01:25:22;8.60;;;4.13;;
63408;SDS011;49544;50.872;4.348;2022-08-01T01:30:51;7.45;;;5.18;;
63408;SDS011;49544;50.872;4.348;2022-08-01T01:33:25;11.90;;;6.00;;
63408;SDS011;49544;50.872;4.348;2022-08-01T01:35:59;12.48;;;5.90;;
63408;SDS011;49544;50.872;4.348;2022-08-01T01:38:36;13.07;;;7.07;;
63408;SDS011;49544;50.872;4.348;2022-08-01T01:43:47;15.32;;;8.55;;
63408;SDS011;49544;50.872;4.348;2022-08-01T01:46:22;12.85;;;7.53;;
63408;SDS011;49544;50.872;4.348;2022-08-01T01:48:56;13.83;;;8.27;;
63408;SDS011;49544;50.872;4.348;2022-08-01T01:51:31;15.32;;;7.78;;
63408;SDS011;49544;50.872;4.348;2022-08-01T01:54:05;14.38;;;7.63;;
63408;SDS011;49544;50.872;4.348;2022-08-01T01:56:39;17.52;;;9.02;;
63408;SDS011;49544;50.872;4.348;2022-08-01T01:59:16;13.95;;;8.60;;
63408;SDS011;49544;50.872;4.348;2022-08-01T02:01:59;14.07;;;7.93;;
63408;SDS011;49544;50.872;4.348;2022-08-01T02:04:30;13.50;;;7.00;;
63408;SDS011;49544;50.872;4.348;2022-08-01T02:07:04;15.32;;;7.38;;
63408;SDS011;49544;50.872;4.348;2022-08-01T02:09:41;13.98;;;6.82;;
63408;SDS011;49544;50.872;4.348;2022-08-01T02:12:17;15.55;;;7.53;;
63408;SDS011;49544;50.872;4.348;2022-08-01T02:14:58;11.65;;;6.88;;
63408;SDS011;49544;50.872;4.348;2022-08-01T02:17:29;19.95;;;8.65;;
63408;SDS011;49544;50.872;4.348;2022-08-01T02:20:02;14.15;;;8.60;;
63408;SDS011;49544;50.872;4.348;2022-08-01T02:22:39;14.60;;;8.70;;
63408;SDS011;49544;50.872;4.348;2022-08-01T02:25:15;16.90;;;9.55;;
63408;SDS011;49544;50.872;4.348;2022-08-01T02:28:05;14.85;;;7.85;;
63408;SDS011;49544;50.872;4.348;2022-08-01T02:30:34;14.60;;;7.82;;
63408;SDS011;49544;50.872;4.348;2022-08-01T02:33:15;14.85;;;8.52;;
63408;SDS011;49544;50.872;4.348;2022-08-01T02:35:58;18.05;;;9.07;;
63408;SDS011;49544;50.872;4.348;2022-08-01T02:41:08;19.02;;;9.27;;
63408;SDS011;49544;50.872;4.348;2022-08-01T02:43:38;17.25;;;8.15;;
63408;SDS011;49544;50.872;4.348;2022-08-01T02:46:16;15.98;;;8.25;;
63408;SDS011;49544;50.872;4.348;2022-08-01T02:48:46;16.25;;;8.57;;
63408;SDS011;49544;50.872;4.348;2022-08-01T02:51:18;19.97;;;9.37;;
63408;SDS011;49544;50.872;4.348;2022-08-01T02:53:52;20.70;;;10.13;;
63408;SDS011;49544;50.872;4.348;2022-08-01T02:56:30;17.42;;;8.95;;
63408;SDS011;49544;50.872;4.348;2022-08-01T02:59:15;17.90;;;8.75;;
63408;SDS011;49544;50.872;4.348;2022-08-01T03:01:46;19.67;;;9.07;;
63408;SDS011;49544;50.872;4.348;2022-08-01T03:04:17;17.13;;;8.80;;
63408;SDS011;49544;50.872;4.348;2022-08-01T03:06:54;21.63;;;8.60;;
63408;SDS011;49544;50.872;4.348;2022-08-01T03:09:25;18.45;;;9.80;;
63408;SDS011;49544;50.872;4.348;2022-08-01T03:11:55;15.93;;;7.65;;
63408;SDS011;49544;50.872;4.348;2022-08-01T03:14:38;19.35;;;9.32;;
63408;SDS011;49544;50.872;4.348;2022-08-01T03:17:11;16.52;;;8.63;;
63408;SDS011;49544;50.872;4.348;2022-08-01T03:19:41;19.50;;;8.10;;
63408;SDS011;49544;50.872;4.348;2022-08-01T03:22:11;18.10;;;7.95;;
63408;SDS011;49544;50.872;4.348;2022-08-01T03:24:44;15.13;;;7.95;;
63408;SDS011;49544;50.872;4.348;2022-08-01T03:27:19;19.55;;;8.73;;
63408;SDS011;49544;50.872;4.348;2022-08-01T03:29:55;24.15;;;9.65;;
63408;SDS011;49544;50.872;4.348;2022-08-01T03:32:35;19.48;;;9.68;;
63408;SDS011;49544;50.872;4.348;2022-08-01T03:35:12;16.55;;;8.68;;
63408;SDS011;49544;50.872;4.348;2022-08-01T03:37:44;19.67;;;9.52;;
63408;SDS011;49544;50.872;4.348;2022-08-01T03:40:59;22.52;;;10.90;;
63408;SDS011;49544;50.872;4.348;2022-08-01T03:43:22;19.02;;;8.95;;
63408;SDS011;49544;50.872;4.348;2022-08-01T03:46:10;18.38;;;9.88;;
63408;SDS011;49544;50.872;4.348;2022-08-01T03:48:47;18.83;;;10.75;;
63408;SDS011;49544;50.872;4.348;2022-08-01T03:51:26;14.90;;;9.38;;
63408;SDS011;49544;50.872;4.348;2022-08-01T03:54:02;21.63;;;10.07;;
63408;SDS011;49544;50.872;4.348;2022-08-01T03:56:36;22.35;;;11.20;;
63408;SDS011;49544;50.872;4.348;2022-08-01T03:59:12;25.75;;;12.70;;
63408;SDS011;49544;50.872;4.348;2022-08-01T04:01:45;17.85;;;10.52;;
63408;SDS011;49544;50.872;4.348;2022-08-01T04:04:21;20.77;;;11.88;;
63408;SDS011;49544;50.872;4.348;2022-08-01T04:06:57;18.00;;;11.02;;
63408;SDS011;49544;50.872;4.348;2022-08-01T04:09:31;21.27;;;11.95;;
63408;SDS011;49544;50.872;4.348;2022-08-01T04:14:47;20.55;;;12.68;;
63408;SDS011;49544;50.872;4.348;2022-08-01T04:17:15;21.23;;;12.40;;
63408;SDS011;49544;50.872;4.348;2022-08-01T04:19:44;19.38;;;12.70;;
63408;SDS011;49544;50.872;4.348;2022-08-01T04:22:11;21.02;;;11.50;;
63408;SDS011;49544;50.872;4.348;2022-08-01T04:24:47;20.50;;;11.70;;
63408;SDS011;49544;50.872;4.348;2022-08-01T04:27:21;18.50;;;11.80;;
63408;SDS011;49544;50.872;4.348;2022-08-01T04:29:56;15.35;;;11.38;;
63408;SDS011;49544;50.872;4.348;2022-08-01T04:32:32;16.92;;;10.85;;
63408;SDS011;49544;50.872;4.348;2022-08-01T04:35:02;17.33;;;10.75;;
63408;SDS011;49544;50.872;4.348;2022-08-01T04:37:31;19.95;;;11.70;;
63408;SDS011;49544;50.872;4.348;2022-08-01T04:40:03;19.83;;;12.70;;
63408;SDS011;49544;50.872;4.348;2022-08-01T04:42:36;15.02;;;10.30;;
63408;SDS011;49544;50.872;4.348;2022-08-01T04:45:07;22.27;;;11.43;;
63408;SDS011;49544;50.872;4.348;2022-08-01T04:47:36;20.80;;;11.25;;
63408;SDS011;49544;50.872;4.348;2022-08-01T04:50:11;21.60;;;11.27;;
63408;SDS011;49544;50.872;4.348;2022-08-01T04:52:41;17.00;;;12.05;;
63408;SDS011;49544;50.872;4.348;2022-08-01T04:55:12;15.38;;;11.30;;
63408;SDS011;49544;50.872;4.348;2022-08-01T04:57:46;17.73;;;11.18;;
63408;SDS011;49544;50.872;4.348;2022-08-01T05:00:18;13.25;;;9.30;;
63408;SDS011;49544;50.872;4.348;2022-08-01T05:02:51;15.25;;;9.43;;
63408;SDS011;49544;50.872;4.348;2022-08-01T05:05:26;13.52;;;9.57;;
63408;SDS011;49544;50.872;4.348;2022-08-01T05:07:59;15.80;;;10.18;;
63408;SDS011;49544;50.872;4.348;2022-08-01T05:10:31;19.80;;;11.02;;
63408;SDS011;49544;50.872;4.348;2022-08-01T05:13:07;14.57;;;9.55;;
63408;SDS011;49544;50.872;4.348;2022-08-01T05:15:36;16.95;;;10.00;;
63408;SDS011;49544;50.872;4.348;2022-08-01T05:18:13;11.50;;;8.30;;
63408;SDS011;49544;50.872;4.348;2022-08-01T05:20:44;16.67;;;10.18;;
63408;SDS011;49544;50.872;4.348;2022-08-01T05:23:19;14.32;;;9.02;;
63408;SDS011;49544;50.872;4.348;2022-08-01T05:25:50;17.73;;;10.30;;
63408;SDS011;49544;50.872;4.348;2022-08-01T05:28:21;16.00;;;10.07;;
63408;SDS011;49544;50.872;4.348;2022-08-01T05:30:52;13.77;;;8.85;;
63408;SDS011;49544;50.872;4.348;2022-08-01T05:33:19;17.55;;;9.77;;
63408;SDS011;49544;50.872;4.348;2022-08-01T05:35:50;16.08;;;9.30;;
63408;SDS011;49544;50.872;4.348;2022-08-01T05:38:24;17.75;;;11.70;;
63408;SDS011;49544;50.872;4.348;2022-08-01T05:40:57;17.55;;;8.57;;
63408;SDS011;49544;50.872;4.348;2022-08-01T05:43:30;12.98;;;7.90;;
63408;SDS011;49544;50.872;4.348;2022-08-01T05:45:56;12.23;;;7.90;;
63408;SDS011;49544;50.872;4.348;2022-08-01T05:48:27;12.25;;;7.07;;
63408;SDS011;49544;50.872;4.348;2022-08-01T05:50:58;12.20;;;7.00;;
63408;SDS011;49544;50.872;4.348;2022-08-01T05:53:24;9.13;;;6.65;;
63408;SDS011;49544;50.872;4.348;2022-08-01T05:55:59;11.95;;;6.40;;
63408;SDS011;49544;50.872;4.348;2022-08-01T05:58:32;10.30;;;6.72;;
63408;SDS011;49544;50.872;4.348;2022-08-01T06:01:03;10.77;;;6.38;;
63408;SDS011;49544;50.872;4.348;2022-08-01T06:03:37;10.25;;;6.82;;
63408;SDS011;49544;50.872;4.348;2022-08-01T06:06:16;13.27;;;7.40;;
63408;SDS011;49544;50.872;4.348;2022-08-01T06:08:51;11.10;;;7.35;;
63408;SDS011;49544;50.872;4.348;2022-08-01T06:11:19;11.25;;;7.00;;
63408;SDS011;49544;50.872;4.348;2022-08-01T06:13:51;9.15;;;5.60;;
63408;SDS011;49544;50.872;4.348;2022-08-01T06:16:20;9.13;;;6.00;;
63408;SDS011;49544;50.872;4.348;2022-08-01T06:18:54;7.88;;;5.32;;
63408;SDS011;49544;50.872;4.348;2022-08-01T06:21:22;7.13;;;4.97;;
63408;SDS011;49544;50.872;4.348;2022-08-01T06:23:48;13.43;;;5.20;;
63408;SDS011;49544;50.872;4.348;2022-08-01T06:26:18;9.27;;;4.97;;
63408;SDS011;49544;50.872;4.348;2022-08-01T06:28:48;11.55;;;5.75;;
63408;SDS011;49544;50.872;4.348;2022-08-01T06:31:17;10.05;;;5.03;;
63408;SDS011;49544;50.872;4.348;2022-08-01T06:33:56;6.03;;;4.40;;
63408;SDS011;49544;50.872;4.348;2022-08-01T06:36:25;5.82;;;3.95;;
63408;SDS011;49544;50.872;4.348;2022-08-01T06:38:59;6.95;;;4.18;;
63408;SDS011;49544;50.872;4.348;2022-08-01T06:41:27;8.00;;;5.30;;
63408;SDS011;49544;50.872;4.348;2022-08-01T06:43:55;9.07;;;4.50;;
63408;SDS011;49544;50.872;4.348;2022-08-01T06:46:24;7.78;;;4.50;;
63408;SDS011;49544;50.872;4.348;2022-08-01T06:48:55;5.95;;;4.43;;
63408;SDS011;49544;50.872;4.348;2022-08-01T06:51:26;5.53;;;3.83;;
63408;SDS011;49544;50.872;4.348;2022-08-01T06:53:52;7.75;;;3.70;;
63408;SDS011;49544;50.872;4.348;2022-08-01T06:56:23;7.15;;;4.10;;
63408;SDS011;49544;50.872;4.348;2022-08-01T06:58:53;6.43;;;4.35;;
63408;SDS011;49544;50.872;4.348;2022-08-01T07:01:28;6.53;;;3.60;;
63408;SDS011;49544;50.872;4.348;2022-08-01T07:03:57;4.68;;;3.00;;
63408;SDS011;49544;50.872;4.348;2022-08-01T07:06:27;5.75;;;3.50;;
63408;SDS011;49544;50.872;4.348;2022-08-01T07:08:53;7.38;;;3.03;;
63408;SDS011;49544;50.872;4.348;2022-08-01T07:11:22;3.95;;;2.78;;
63408;SDS011;49544;50.872;4.348;2022-08-01T07:13:53;6.38;;;3.10;;
63408;SDS011;49544;50.872;4.348;2022-08-01T07:16:22;7.38;;;3.17;;
63408;SDS011;49544;50.872;4.348;2022-08-01T07:18:53;6.05;;;3.60;;
63408;SDS011;49544;50.872;4.348;2022-08-01T07:21:27;6.00;;;3.60;;
63408;SDS011;49544;50.872;4.348;2022-08-01T07:24:05;5.20;;;3.15;;
63408;SDS011;49544;50.872;4.348;2022-08-01T07:26:41;5.85;;;2.90;;
63408;SDS011;49544;50.872;4.348;2022-08-01T07:29:13;3.00;;;2.10;;
63408;SDS011;49544;50.872;4.348;2022-08-01T07:31:54;1.70;;;1.58;;
63408;SDS011;49544;50.872;4.348;2022-08-01T07:34:27;1.67;;;1.40;;
63408;SDS011;49544;50.872;4.348;2022-08-01T07:37:02;2.05;;;1.40;;
63408;SDS011;49544;50.872;4.348;2022-08-01T07:39:30;3.70;;;1.90;;
63408;SDS011;49544;50.872;4.348;2022-08-01T07:41:56;2.00;;;1.70;;
63408;SDS011;49544;50.872;4.348;2022-08-01T07:44:25;3.55;;;2.20;;
63408;SDS011;49544;50.872;4.348;2022-08-01T07:46:56;4.50;;;1.60;;
63408;SDS011;49544;50.872;4.348;2022-08-01T07:49:24;3.72;;;1.52;;
63408;SDS011;49544;50.872;4.348;2022-08-01T07:51:55;3.53;;;1.88;;
63408;SDS011;49544;50.872;4.348;2022-08-01T07:54:23;4.30;;;1.92;;
63408;SDS011;49544;50.872;4.348;2022-08-01T07:56:53;4.53;;;1.77;;
63408;SDS011;49544;50.872;4.348;2022-08-01T07:59:22;2.65;;;1.83;;
63408;SDS011;49544;50.872;4.348;2022-08-01T08:01:58;3.92;;;1.65;;
63408;SDS011;49544;50.872;4.348;2022-08-01T08:04:27;3.07;;;1.53;;
63408;SDS011;49544;50.872;4.348;2022-08-01T08:06:58;4.75;;;1.73;;
63408;SDS011;49544;50.872;4.348;2022-08-01T08:09:35;3.80;;;1.48;;
63408;SDS011;49544;50.872;4.348;2022-08-01T08:12:00;1.67;;;1.35;;
63408;SDS011;49544;50.872;4.348;2022-08-01T08:14:34;4.47;;;1.50;;
63408;SDS011;49544;50.872;4.348;2022-08-01T08:17:04;4.68;;;1.58;;
63408;SDS011;49544;50.872;4.348;2022-08-01T08:19:38;4.93;;;1.60;;
63408;SDS011;49544;50.872;4.348;2022-08-01T08:22:07;4.55;;;1.60;;
63408;SDS011;49544;50.872;4.348;2022-08-01T08:24:38;3.35;;;1.77;;
63408;SDS011;49544;50.872;4.348;2022-08-01T08:27:15;3.10;;;1.92;;
63408;SDS011;49544;50.872;4.348;2022-08-01T08:29:49;2.35;;;1.45;;
63408;SDS011;49544;50.872;4.348;2022-08-01T08:32:19;1.80;;;1.42;;
63408;SDS011;49544;50.872;4.348;2022-08-01T08:34:50;3.25;;;1.67;;
63408;SDS011;49544;50.872;4.348;2022-08-01T08:37:34;3.20;;;1.48;;
63408;SDS011;49544;50.872;4.348;2022-08-01T08:40:05;2.60;;;1.70;;
63408;SDS011;49544;50.872;4.348;2022-08-01T08:42:46;3.72;;;1.65;;
63408;SDS011;49544;50.872;4.348;2022-08-01T08:45:21;2.58;;;1.52;;
63408;SDS011;49544;50.872;4.348;2022-08-01T08:47:53;3.75;;;1.40;;
63408;SDS011;49544;50.872;4.348;2022-08-01T08:50:21;4.32;;;2.03;;
63408;SDS011;49544;50.872;4.348;2022-08-01T08:52:52;2.17;;;1.55;;
63408;SDS011;49544;50.872;4.348;2022-08-01T08:55:22;4.40;;;1.45;;
63408;SDS011;49544;50.872;4.348;2022-08-01T08:57:53;3.13;;;1.20;;
63408;SDS011;49544;50.872;4.348;2022-08-01T09:00:25;2.22;;;1.38;;
63408;SDS011;49544;50.872;4.348;2022-08-01T09:02:56;7.60;;;1.83;;
63408;SDS011;49544;50.872;4.348;2022-08-01T09:05:24;12.57;;;8.73;;
63408;SDS011;49544;50.872;4.348;2022-08-01T09:07:51;3.85;;;2.22;;
63408;SDS011;49544;50.872;4.348;2022-08-01T09:10:17;2.72;;;2.08;;
63408;SDS011;49544;50.872;4.348;2022-08-01T09:18:25;2.80;;;1.48;;
63408;SDS011;49544;50.872;4.348;2022-08-01T09:21:11;4.88;;;1.33;;
63408;SDS011;49544;50.872;4.348;2022-08-01T09:26:17;1.85;;;1.40;;
63408;SDS011;49544;50.872;4.348;2022-08-01T09:28:51;3.53;;;1.30;;
63408;SDS011;49544;50.872;4.348;2022-08-01T09:31:22;2.15;;;1.08;;
63408;SDS011;49544;50.872;4.348;2022-08-01T09:33:57;1.30;;;1.00;;
63408;SDS011;49544;50.872;4.348;2022-08-01T09:36:51;3.00;;;1.33;;
63408;SDS011;49544;50.872;4.348;2022-08-01T09:41:59;2.60;;;1.15;;
63408;SDS011;49544;50.872;4.348;2022-08-01T09:44:48;2.25;;;0.80;;
63408;SDS011;49544;50.872;4.348;2022-08-01T09:47:23;3.95;;;0.73;;
63408;SDS011;49544;50.872;4.348;2022-08-01T09:50:05;1.80;;;0.98;;
63408;SDS011;49544;50.872;4.348;2022-08-01T09:52:48;5.07;;;1.17;;
63408;SDS011;49544;50.872;4.348;2022-08-01T09:55:26;1.48;;;0.77;;
63408;SDS011;49544;50.872;4.348;2022-08-01T09:58:00;2.03;;;0.80;;
63408;SDS011;49544;50.872;4.348;2022-08-01T10:00:29;0.95;;;0.75;;
63408;SDS011;49544;50.872;4.348;2022-08-01T10:03:19;5.15;;;0.90;;
63408;SDS011;49544;50.872;4.348;2022-08-01T10:05:55;0.88;;;0.80;;
63408;SDS011;49544;50.872;4.348;2022-08-01T10:08:27;1.50;;;0.75;;
63408;SDS011;49544;50.872;4.348;2022-08-01T10:11:08;1.83;;;0.82;;
63408;SDS011;49544;50.872;4.348;2022-08-01T10:13:39;2.22;;;0.75;;
63408;SDS011;49544;50.872;4.348;2022-08-01T10:16:10;2.08;;;0.50;;
63408;SDS011;49544;50.872;4.348;2022-08-01T10:18:44;3.33;;;0.90;;
63408;SDS011;49544;50.872;4.348;2022-08-01T10:21:16;0.93;;;0.85;;
63408;SDS011;49544;50.872;4.348;2022-08-01T10:23:51;2.03;;;0.95;;
63408;SDS011;49544;50.872;4.348;2022-08-01T10:26:25;1.50;;;0.85;;
63408;SDS011;49544;50.872;4.348;2022-08-01T10:29:02;2.83;;;0.85;;
63408;SDS011;49544;50.872;4.348;2022-08-01T10:31:32;1.87;;;1.30;;
63408;SDS011;49544;50.872;4.348;2022-08-01T10:34:04;1.50;;;0.80;;
63408;SDS011;49544;50.872;4.348;2022-08-01T10:36:38;2.00;;;1.38;;
63408;SDS011;49544;50.872;4.348;2022-08-01T10:39:25;2.28;;;1.10;;
63408;SDS011;49544;50.872;4.348;2022-08-01T10:42:00;1.70;;;0.90;;
63408;SDS011;49544;50.872;4.348;2022-08-01T10:44:32;0.93;;;0.90;;
63408;SDS011;49544;50.872;4.348;2022-08-01T10:47:04;1.10;;;0.90;;
63408;SDS011;49544;50.872;4.348;2022-08-01T10:49:51;0.77;;;0.77;;
63408;SDS011;49544;50.872;4.348;2022-08-01T10:52:26;4.07;;;1.00;;
63408;SDS011;49544;50.872;4.348;2022-08-01T10:55:07;3.35;;;1.42;;
63408;SDS011;49544;50.872;4.348;2022-08-01T10:57:46;1.67;;;0.88;;
63408;SDS011;49544;50.872;4.348;2022-08-01T11:00:16;1.27;;;0.90;;
63408;SDS011;49544;50.872;4.348;2022-08-01T11:03:04;1.08;;;0.80;;
63408;SDS011;49544;50.872;4.348;2022-08-01T11:05:33;3.22;;;0.68;;
63408;SDS011;49544;50.872;4.348;2022-08-01T11:08:09;2.60;;;0.70;;
63408;SDS011;49544;50.872;4.348;2022-08-01T11:10:51;2.15;;;0.70;;
63408;SDS011;49544;50.872;4.348;2022-08-01T11:16:35;1.80;;;0.82;;
63408;SDS011;49544;50.872;4.348;2022-08-01T11:19:05;1.83;;;0.80;;
63408;SDS011;49544;50.872;4.348;2022-08-01T11:27:22;4.55;;;0.68;;
63408;SDS011;49544;50.872;4.348;2022-08-01T11:33:15;3.45;;;0.80;;
63408;SDS011;49544;50.872;4.348;2022-08-01T11:41:33;1.95;;;0.82;;
63408;SDS011;49544;50.872;4.348;2022-08-01T11:44:03;2.58;;;0.90;;
63408;SDS011;49544;50.872;4.348;2022-08-01T11:52:10;3.33;;;1.10;;
63408;SDS011;49544;50.872;4.348;2022-08-01T11:57:23;1.13;;;0.80;;
63408;SDS011;49544;50.872;4.348;2022-08-01T12:00:05;1.50;;;0.82;;
63408;SDS011;49544;50.872;4.348;2022-08-01T12:02:40;2.67;;;1.02;;
63408;SDS011;49544;50.872;4.348;2022-08-01T12:05:10;6.78;;;0.85;;
63408;SDS011;49544;50.872;4.348;2022-08-01T12:07:47;2.80;;;1.10;;
63408;SDS011;49544;50.872;4.348;2022-08-01T12:10:27;1.75;;;0.80;;
63408;SDS011;49544;50.872;4.348;2022-08-01T12:13:04;2.92;;;0.77;;
63408;SDS011;49544;50.872;4.348;2022-08-01T12:15:37;2.53;;;0.98;;
63408;SDS011;49544;50.872;4.348;2022-08-01T12:18:07;1.15;;;0.90;;
63408;SDS011;49544;50.872;4.348;2022-08-01T12:20:35;1.40;;;0.80;;
63408;SDS011;49544;50.872;4.348;2022-08-01T12:23:15;1.88;;;1.10;;
63408;SDS011;49544;50.872;4.348;2022-08-01T12:25:41;2.15;;;0.80;;
63408;SDS011;49544;50.872;4.348;2022-08-01T12:28:15;2.00;;;0.80;;
63408;SDS011;49544;50.872;4.348;2022-08-01T12:30:46;1.52;;;0.82;;
63408;SDS011;49544;50.872;4.348;2022-08-01T12:33:17;1.75;;;0.80;;
63408;SDS011;49544;50.872;4.348;2022-08-01T12:35:49;1.35;;;0.90;;
63408;SDS011;49544;50.872;4.348;2022-08-01T12:38:21;2.97;;;0.80;;
63408;SDS011;49544;50.872;4.348;2022-08-01T12:40:59;1.42;;;1.00;;
63408;SDS011;49544;50.872;4.348;2022-08-01T12:43:31;6.25;;;1.63;;
63408;SDS011;49544;50.872;4.348;2022-08-01T12:46:03;4.07;;;1.10;;
63408;SDS011;49544;50.872;4.348;2022-08-01T12:48:33;2.10;;;1.00;;
63408;SDS011;49544;50.872;4.348;2022-08-01T12:51:12;2.35;;;1.17;;
63408;SDS011;49544;50.872;4.348;2022-08-01T12:53:44;1.77;;;1.17;;
63408;SDS011;49544;50.872;4.348;2022-08-01T12:56:16;2.17;;;0.88;;
63408;SDS011;49544;50.872;4.348;2022-08-01T12:58:44;3.28;;;1.10;;
63408;SDS011;49544;50.872;4.348;2022-08-01T13:01:24;5.43;;;1.17;;
63408;SDS011;49544;50.872;4.348;2022-08-01T13:04:02;5.30;;;1.10;;
63408;SDS011;49544;50.872;4.348;2022-08-01T13:06:37;3.05;;;1.15;;
63408;SDS011;49544;50.872;4.348;2022-08-01T13:09:11;3.08;;;1.17;;
63408;SDS011;49544;50.872;4.348;2022-08-01T13:11:42;5.93;;;1.30;;
63408;SDS011;49544;50.872;4.348;2022-08-01T13:14:27;3.83;;;1.00;;
63408;SDS011;49544;50.872;4.348;2022-08-01T13:16:55;3.03;;;0.90;;
63408;SDS011;49544;50.872;4.348;2022-08-01T13:19:42;4.55;;;1.02;;
63408;SDS011;49544;50.872;4.348;2022-08-01T13:22:15;3.83;;;0.85;;
63408;SDS011;49544;50.872;4.348;2022-08-01T13:24:50;2.90;;;1.00;;
63408;SDS011;49544;50.872;4.348;2022-08-01T13:27:39;2.40;;;1.10;;
63408;SDS011;49544;50.872;4.348;2022-08-01T13:30:19;1.90;;;0.93;;
63408;SDS011;49544;50.872;4.348;2022-08-01T13:32:59;4.75;;;1.30;;
63408;SDS011;49544;50.872;4.348;2022-08-01T13:35:27;2.95;;;0.82;;
63408;SDS011;49544;50.872;4.348;2022-08-01T13:38:00;4.53;;;1.17;;
63408;SDS011;49544;50.872;4.348;2022-08-01T13:40:27;1.67;;;0.63;;
63408;SDS011;49544;50.872;4.348;2022-08-01T13:42:53;0.70;;;0.70;;
63408;SDS011;49544;50.872;4.348;2022-08-01T13:45:28;1.17;;;1.00;;
63408;SDS011;49544;50.872;4.348;2022-08-01T13:47:59;2.33;;;0.88;;
63408;SDS011;49544;50.872;4.348;2022-08-01T13:50:31;3.80;;;1.00;;
63408;SDS011;49544;50.872;4.348;2022-08-01T13:53:01;2.00;;;0.95;;
63408;SDS011;49544;50.872;4.348;2022-08-01T13:55:30;3.03;;;0.95;;
63408;SDS011;49544;50.872;4.348;2022-08-01T13:58:05;2.70;;;0.80;;
63408;SDS011;49544;50.872;4.348;2022-08-01T14:00:36;1.13;;;0.65;;
63408;SDS011;49544;50.872;4.348;2022-08-01T14:03:04;3.15;;;1.50;;
63408;SDS011;49544;50.872;4.348;2022-08-01T14:05:34;2.58;;;0.80;;
63408;SDS011;49544;50.872;4.348;2022-08-01T14:08:06;2.05;;;1.00;;
63408;SDS011;49544;50.872;4.348;2022-08-01T14:10:37;2.25;;;0.98;;
63408;SDS011;49544;50.872;4.348;2022-08-01T14:13:11;3.78;;;1.00;;
63408;SDS011;49544;50.872;4.348;2022-08-01T14:15:42;2.38;;;0.93;;
63408;SDS011;49544;50.872;4.348;2022-08-01T14:18:15;2.75;;;1.08;;
63408;SDS011;49544;50.872;4.348;2022-08-01T14:20:47;1.75;;;1.00;;
63408;SDS011;49544;50.872;4.348;2022-08-01T14:23:15;1.15;;;0.70;;
63408;SDS011;49544;50.872;4.348;2022-08-01T14:25:49;1.50;;;1.00;;
63408;SDS011;49544;50.872;4.348;2022-08-01T14:28:23;3.75;;;0.85;;
63408;SDS011;49544;50.872;4.348;2022-08-01T14:30:52;1.83;;;0.80;;
63408;SDS011;49544;50.872;4.348;2022-08-01T14:33:20;1.90;;;0.90;;
63408;SDS011;49544;50.872;4.348;2022-08-01T14:35:52;1.40;;;0.80;;
63408;SDS011;49544;50.872;4.348;2022-08-01T14:38:29;3.70;;;1.65;;
63408;SDS011;49544;50.872;4.348;2022-08-01T14:40:55;1.85;;;1.00;;
63408;SDS011;49544;50.872;4.348;2022-08-01T14:43:27;2.35;;;1.15;;
63408;SDS011;49544;50.872;4.348;2022-08-01T14:45:59;2.50;;;0.77;;
63408;SDS011;49544;50.872;4.348;2022-08-01T14:48:36;1.75;;;0.80;;
63408;SDS011;49544;50.872;4.348;2022-08-01T14:51:06;2.10;;;0.68;;
63408;SDS011;49544;50.872;4.348;2022-08-01T14:53:40;1.30;;;0.80;;
63408;SDS011;49544;50.872;4.348;2022-08-01T14:56:07;2.95;;;1.13;;
63408;SDS011;49544;50.872;4.348;2022-08-01T14:58:38;1.38;;;0.93;;
63408;SDS011;49544;50.872;4.348;2022-08-01T15:01:12;3.13;;;0.80;;
63408;SDS011;49544;50.872;4.348;2022-08-01T15:03:41;1.48;;;0.80;;
63408;SDS011;49544;50.872;4.348;2022-08-01T15:06:07;3.53;;;1.00;;
63408;SDS011;49544;50.872;4.348;2022-08-01T15:08:39;3.25;;;0.77;;
63408;SDS011;49544;50.872;4.348;2022-08-01T15:11:13;2.15;;;0.77;;
63408;SDS011;49544;50.872;4.348;2022-08-01T15:13:42;0.95;;;0.70;;
63408;SDS011;49544;50.872;4.348;2022-08-01T15:16:33;5.40;;;3.22;;
63408;SDS011;49544;50.872;4.348;2022-08-01T15:18:59;1.67;;;0.80;;
63408;SDS011;49544;50.872;4.348;2022-08-01T15:21:28;2.25;;;1.08;;
63408;SDS011;49544;50.872;4.348;2022-08-01T15:24:00;1.83;;;0.80;;
63408;SDS011;49544;50.872;4.348;2022-08-01T15:26:28;1.58;;;0.70;;
63408;SDS011;49544;50.872;4.348;2022-08-01T15:28:57;3.30;;;0.80;;
63408;SDS011;49544;50.872;4.348;2022-08-01T15:31:28;1.05;;;0.70;;
63408;SDS011;49544;50.872;4.348;2022-08-01T15:33:57;1.40;;;0.90;;
63408;SDS011;49544;50.872;4.348;2022-08-01T15:36:28;1.02;;;0.55;;
63408;SDS011;49544;50.872;4.348;2022-08-01T15:41:24;4.53;;;1.35;;
63408;SDS011;49544;50.872;4.348;2022-08-01T15:43:50;1.88;;;0.82;;
63408;SDS011;49544;50.872;4.348;2022-08-01T15:46:16;1.90;;;0.95;;
63408;SDS011;49544;50.872;4.348;2022-08-01T15:48:47;2.03;;;0.75;;
63408;SDS011;49544;50.872;4.348;2022-08-01T15:51:18;2.92;;;0.82;;
63408;SDS011;49544;50.872;4.348;2022-08-01T15:53:47;0.77;;;0.75;;
63408;SDS011;49544;50.872;4.348;2022-08-01T15:56:15;5.15;;;1.00;;
63408;SDS011;49544;50.872;4.348;2022-08-01T15:58:46;2.80;;;0.80;;
63408;SDS011;49544;50.872;4.348;2022-08-01T16:01:16;1.90;;;0.70;;
63408;SDS011;49544;50.872;4.348;2022-08-01T16:03:48;4.28;;;1.20;;
63408;SDS011;49544;50.872;4.348;2022-08-01T16:06:19;2.65;;;1.00;;
63408;SDS011;49544;50.872;4.348;2022-08-01T16:08:45;3.20;;;0.95;;
63408;SDS011;49544;50.872;4.348;2022-08-01T16:11:16;3.25;;;0.98;;
63408;SDS011;49544;50.872;4.348;2022-08-01T16:13:48;3.03;;;0.77;;
63408;SDS011;49544;50.872;4.348;2022-08-01T16:16:16;5.80;;;1.00;;